EISGEGPH

Guest
Details From EISG - Sligo
To EGPH - Edinburgh
Flight Number -
Tags decoded
Created
Modified
Stats Distance 213 nm / 394 km
Max Altitude 0 ft / 0 m
Waypoints 5
Social Downloads 2
Likes 0
Share VATSIM

Download

Looking for another format? Having issues loading an existing format? Contact us
Advertisement - Login to hide

Notes

Requested: EISG BEL TRN FENIK EGPH

Route

EISG BEL TRN FENIK EGPH

ID Type Via Altitude Latitude Longitude Leg Dist Tot Dist Heading (true) Name
O EISG APT - 0 ft / 0 m 54.28021˚ -8.59920˚ - 0 nm - Sligo
BEL VOR - 0 ft / 0 m 54.66111˚ -6.23000˚ 85 nm 85 nm 74° / 76° BELFAST VOR-DME
TRN VOR - 0 ft / 0 m 55.31333˚ -4.78389˚ 63 nm 149 nm 51° / 52° TURNBERRY VOR-DME
FENIK FIX - 0 ft / 0 m 55.71528˚ -4.29194˚ 29 nm 178 nm 35° / 35° -
O EGPH APT - 0 ft / 0 m 55.94869˚ -3.35972˚ 34 nm 212 nm 66° / 66° Edinburgh

Altitude Profile

Advertisement - Login to hide

Weather


0- 5 10 15 20 25 30 35+ Temperature / ° C

Clouds and Precipitation
Forecast for 2017-12-11 18:00 UTC. Updated 14 minutes ago

Ground ~20,000 ft ~40,000 ft Winds

EISG

Details ICAO EISG (SXL)
Name Sligo
Region Ireland
Timezone Europe/Dublin (UTC+0.0)
Stats Elevation 11 ft / 3 m (AMSL)
Location 54.280211° -8.599196°
Runways 1
Magnetic Variation 4.152° W

METAR

EISG 111730Z 20004KT 080V250 CAVOK 03/01 Q1000

Decode

TAF

Not found

Departure Runways

ID Width Length Bearing (true) Bearing (mag) Surface Threshold Offset Overrun Length
11 98 ft / 30 m 3,792 ft / 1,156 m 100.37° 104.52° Asphalt 125 ft / 38 m 0 ft / 0 m
29 98 ft / 30 m 3,792 ft / 1,156 m 280.39° 284.54° Asphalt 131 ft / 40 m 0 ft / 0 m

EGPH

Details ICAO EGPH (EDI)
Name Edinburgh
Region United Kingdom
Timezone Europe/London (UTC+0.0)
Stats Elevation 135 ft / 41 m (AMSL)
Location 55.948685° -3.359718°
Runways 2
Magnetic Variation 2.300° W

METAR

EGPH 111720Z AUTO 23003KT 9999 OVC033 00/M01 Q0995

Decode

TAF

TAF AMD EGPH 111559Z 1116/1212 26005KT 9999 SCT040 TEMPO 1116/1121 7000

Decode

Destination Runways

ID Width Length Bearing (true) Bearing (mag) Surface Threshold Offset Overrun Length
06 144 ft / 44 m 8,366 ft / 2,550 m 58.80° 61.10° Asphalt 705 ft / 215 m 200 ft / 61 m
12 151 ft / 46 m 5,878 ft / 1,792 m 118.67° 120.97° Asphalt 0 ft / 0 m 0 ft / 0 m
24 144 ft / 44 m 8,366 ft / 2,550 m 238.83° 241.13° Asphalt 679 ft / 207 m 207 ft / 63 m
30 151 ft / 46 m 5,878 ft / 1,792 m 298.69° 300.99° Asphalt 194 ft / 59 m 253 ft / 77 m

Approach Navaids

Runway Type Ident Frequency Range Bearing (true) Bearing (mag) Slope Elevation
06 Localiser IVG 108.90 MHz 18 nm / 33 km 58.83° 61.13° - 110 ft / 34 m (AMSL)
06 Glidescope IVG 108.90 MHz 10 nm / 19 km 58.81° 61.11° 3.00° 135 ft / 41 m (AMSL)
06 DME IVG 108.90 MHz 18 nm / 33 km - - - 123 ft / 37 m (AMSL)
24 Localiser ITH 108.90 MHz 18 nm / 33 km 238.79° 241.09° - 110 ft / 34 m (AMSL)
24 Glidescope ITH 108.90 MHz 10 nm / 19 km 238.81° 241.11° 3.00° 135 ft / 41 m (AMSL)
24 DME ITH 108.90 MHz 18 nm / 33 km - - - 123 ft / 37 m (AMSL)